createdAt,value
2019-01-21T00:01:32.191Z,58.24
2019-01-21T00:04:34.204Z,58.24
2019-01-21T00:07:36.115Z,57.99
2019-01-21T00:10:38.349Z,58.05
2019-01-21T00:13:40.349Z,57.96
2019-01-21T00:16:42.299Z,57.95
2019-01-21T00:19:44.185Z,57.97
2019-01-21T00:22:46.146Z,58.04
2019-01-21T00:25:48.168Z,58.00
2019-01-21T00:28:50.100Z,58.07
2019-01-21T00:31:52.431Z,58.04
2019-01-21T00:34:54.359Z,57.95
2019-01-21T00:37:56.424Z,57.97
2019-01-21T00:40:58.335Z,57.99
2019-01-21T00:44:00.304Z,58.06
2019-01-21T00:47:02.260Z,58.04
2019-01-21T00:50:12.937Z,57.99
2019-01-21T00:53:14.889Z,57.95
2019-01-21T00:56:16.855Z,58.02
2019-01-21T00:59:18.898Z,58.02
2019-01-21T01:02:20.798Z,57.96
2019-01-21T01:05:23.580Z,57.99
2019-01-21T01:08:25.510Z,58.02
2019-01-21T01:11:27.953Z,58.04
2019-01-21T01:14:29.797Z,58.14
2019-01-21T01:17:37.153Z,58.14
2019-01-21T01:20:36.833Z,58.23
2019-01-21T01:23:38.785Z,58.18
2019-01-21T01:26:40.748Z,58.14
2019-01-21T01:29:42.710Z,57.93
2019-01-21T01:32:44.619Z,57.89
2019-01-21T01:35:46.582Z,57.94
2019-01-21T01:38:48.490Z,57.87
2019-01-21T01:41:50.434Z,57.92
2019-01-21T01:44:52.356Z,57.92
2019-01-21T01:47:57.854Z,57.91
2019-01-21T01:50:59.809Z,57.93
2019-01-21T01:54:02.393Z,57.80
2019-01-21T01:57:04.393Z,57.98
2019-01-21T02:00:10.147Z,58.07
2019-01-21T02:03:12.103Z,58.09
2019-01-21T02:06:14.167Z,58.17
2019-01-21T02:09:16.106Z,58.08
2019-01-21T02:12:18.139Z,57.93
2019-01-21T02:15:20.623Z,57.82
2019-01-21T02:18:22.529Z,57.73
2019-01-21T02:21:26.825Z,57.87
2019-01-21T02:24:31.654Z,57.93
2019-01-21T02:27:37.213Z,57.80
2019-01-21T02:31:02.521Z,57.80
2019-01-21T02:34:17.082Z,57.68
2019-01-21T02:37:34.977Z,57.80
2019-01-21T02:40:40.540Z,58.01
2019-01-21T02:43:48.882Z,58.00
2019-01-21T02:47:12.475Z,57.89
2019-01-21T02:50:21.090Z,57.73
2019-01-21T02:53:29.339Z,57.74
2019-01-21T02:56:41.059Z,57.78
2019-01-21T02:59:55.742Z,57.67
2019-01-21T03:03:04.379Z,57.59
2019-01-21T03:06:15.570Z,57.74
2019-01-21T03:09:36.590Z,57.77
2019-01-21T03:12:45.039Z,57.73
2019-01-21T03:15:53.374Z,57.84
2019-01-21T03:19:04.710Z,57.89
2019-01-21T03:22:28.478Z,57.81
2019-01-21T03:25:43.949Z,57.77
2019-01-21T03:28:50.899Z,57.89
2019-01-21T03:32:29.946Z,57.85
2019-01-21T03:35:59.507Z,57.82
2019-01-21T03:39:17.132Z,57.91
2019-01-21T03:42:37.260Z,57.79
2019-01-21T03:46:01.092Z,57.67
2019-01-21T03:49:09.415Z,57.55
2019-01-21T03:52:30.302Z,57.47
2019-01-21T03:55:32.491Z,57.42
2019-01-21T03:59:06.995Z,57.29
2019-01-21T04:02:31.297Z,57.13
2019-01-21T04:05:36.896Z,57.31
2019-01-21T04:08:42.467Z,57.29
2019-01-21T04:12:07.952Z,57.34
2019-01-21T04:15:16.233Z,57.27
2019-01-21T04:18:47.749Z,57.55
2019-01-21T04:21:59.090Z,57.51
2019-01-21T04:25:27.583Z,57.64
2019-01-21T04:28:44.091Z,57.61
2019-01-21T04:31:52.612Z,57.68
2019-01-21T04:35:13.434Z,57.69
2019-01-21T04:38:24.974Z,57.55
2019-01-21T04:41:42.744Z,57.34
2019-01-21T04:45:03.437Z,57.23
2019-01-21T04:48:17.973Z,57.21
2019-01-21T04:51:23.582Z,57.08
2019-01-21T04:54:49.037Z,56.76
2019-01-21T04:58:12.776Z,56.58
2019-01-21T05:01:33.735Z,56.33
2019-01-21T05:04:59.180Z,56.09
2019-01-21T05:08:36.631Z,56.11
2019-01-21T05:11:53.930Z,56.26
2019-01-21T05:15:14.615Z,56.39
2019-01-21T05:18:49.161Z,56.34
2019-01-21T05:22:09.190Z,56.02
2019-01-21T05:25:26.633Z,56.32
2019-01-21T05:28:34.947Z,56.47
2019-01-21T05:31:55.920Z,56.50
2019-01-21T05:35:18.178Z,56.35
2019-01-21T05:38:23.742Z,56.24
2019-01-21T05:41:40.821Z,56.20
2019-01-21T05:45:01.485Z,56.08
2019-01-21T05:48:07.369Z,56.00
2019-01-21T05:51:46.590Z,55.94
2019-01-21T05:55:02.466Z,55.76
2019-01-21T05:58:13.956Z,55.85
2019-01-21T06:01:34.564Z,55.87
2019-01-21T06:04:51.951Z,55.70
2019-01-21T06:08:06.512Z,55.63
2019-01-21T06:11:14.721Z,55.44
2019-01-21T06:14:26.241Z,55.24
2019-01-21T06:17:43.950Z,55.16
2019-01-21T06:21:16.395Z,55.00
2019-01-21T06:24:24.672Z,55.16
2019-01-21T06:27:39.325Z,55.43
2019-01-21T06:30:59.765Z,55.49
2019-01-21T06:34:29.564Z,55.51
2019-01-21T06:37:37.932Z,55.41
2019-01-21T06:40:46.452Z,55.58
2019-01-21T06:43:57.986Z,55.74
2019-01-21T06:47:36.156Z,55.51
2019-01-21T06:51:06.563Z,55.26
2019-01-21T06:54:21.177Z,55.48
2019-01-21T06:57:32.870Z,55.38
2019-01-21T07:00:50.673Z,55.19
2019-01-21T07:04:02.270Z,55.06
2019-01-21T07:07:23.148Z,55.04
2019-01-21T07:10:34.602Z,54.99
2019-01-21T07:13:56.340Z,54.77
2019-01-21T07:17:23.892Z,54.89
2019-01-21T07:20:49.605Z,54.98
2019-01-21T07:24:27.154Z,54.98
2019-01-21T07:27:41.868Z,55.06
2019-01-21T07:30:56.472Z,55.39
2019-01-21T07:34:11.082Z,55.38
2019-01-21T07:37:19.635Z,55.33
2019-01-21T07:40:46.786Z,55.22
2019-01-21T07:44:01.420Z,54.86
2019-01-21T07:47:26.544Z,54.79
2019-01-21T07:50:38.531Z,54.56
2019-01-21T07:53:59.435Z,54.57
2019-01-21T07:57:34.318Z,54.21
2019-01-21T08:00:51.898Z,54.13
2019-01-21T08:04:16.133Z,54.24
2019-01-21T08:07:24.559Z,54.28
2019-01-21T08:10:42.277Z,54.51
2019-01-21T08:14:00.177Z,54.45
2019-01-21T08:17:14.756Z,54.16
2019-01-21T08:20:41.721Z,53.71
2019-01-21T08:23:50.396Z,53.50
2019-01-21T08:26:58.673Z,53.97
2019-01-21T08:30:07.314Z,54.02
2019-01-21T08:33:41.979Z,53.73
2019-01-21T08:36:53.398Z,53.69
2019-01-21T08:40:04.907Z,53.85
2019-01-21T08:43:13.293Z,53.50
2019-01-21T08:46:40.111Z,53.45
2019-01-21T08:49:57.787Z,53.31
2019-01-21T08:53:18.433Z,53.40
2019-01-21T08:56:45.433Z,53.29
2019-01-21T09:00:06.110Z,53.22
2019-01-21T09:03:28.348Z,53.13
2019-01-21T09:06:42.727Z,53.26
2019-01-21T09:09:54.219Z,53.27
2019-01-21T09:13:08.945Z,53.02
2019-01-21T09:16:35.767Z,52.86
2019-01-21T09:19:56.353Z,52.73
2019-01-21T09:23:07.785Z,52.92
2019-01-21T09:26:28.622Z,52.85
2019-01-21T09:30:01.231Z,52.66
2019-01-21T09:33:12.575Z,52.36
2019-01-21T09:36:32.942Z,52.64
2019-01-21T09:39:44.620Z,52.32
2019-01-21T09:43:05.219Z,52.56
2019-01-21T09:46:10.873Z,52.01
2019-01-21T09:49:12.355Z,51.47
2019-01-21T09:52:16.444Z,51.28
2019-01-21T09:55:20.890Z,51.23
2019-01-21T09:58:23.670Z,50.76
2019-01-21T10:01:26.093Z,50.78
2019-01-21T10:04:37.317Z,50.47
2019-01-21T10:07:48.875Z,50.25
2019-01-21T10:11:03.614Z,49.72
2019-01-21T10:14:24.965Z,49.65
2019-01-21T10:17:36.439Z,49.55
2019-01-21T10:20:42.023Z,49.83
2019-01-21T10:23:50.175Z,50.35
2019-01-21T10:26:58.908Z,50.39
2019-01-21T10:30:13.493Z,50.21
2019-01-21T10:33:31.110Z,50.36
2019-01-21T10:36:56.112Z,49.79
2019-01-21T10:40:08.103Z,49.47
2019-01-21T10:43:28.844Z,49.75
2019-01-21T10:46:37.133Z,49.69
2019-01-21T10:49:59.527Z,49.42
2019-01-21T10:53:20.476Z,48.96
2019-01-21T10:56:37.491Z,49.76
2019-01-21T10:59:55.127Z,49.96
2019-01-21T11:03:17.306Z,50.24
2019-01-21T11:06:29.161Z,50.00
2019-01-21T11:09:34.679Z,50.02
2019-01-21T11:13:07.723Z,49.74
2019-01-21T11:16:16.017Z,49.55
2019-01-21T11:19:45.068Z,49.32
2019-01-21T11:22:59.511Z,49.20
2019-01-21T11:26:19.887Z,49.51
2019-01-21T11:29:40.372Z,49.38
2019-01-21T11:32:51.552Z,49.13
2019-01-21T11:36:08.982Z,49.35
2019-01-21T11:39:37.185Z,49.25
2019-01-21T11:42:45.268Z,49.25
2019-01-21T11:46:18.430Z,48.87
2019-01-21T11:49:38.627Z,48.67
2019-01-21T11:52:50.398Z,48.92
2019-01-21T11:56:05.033Z,48.61
2019-01-21T11:59:10.669Z,48.04
2019-01-21T12:02:16.225Z,48.61
2019-01-21T12:05:24.940Z,48.70
2019-01-21T12:08:33.463Z,48.85
2019-01-21T12:11:41.973Z,48.66
2019-01-21T12:14:56.665Z,48.74
2019-01-21T12:18:02.274Z,48.57
2019-01-21T12:21:22.632Z,49.53
2019-01-21T12:24:25.926Z,50.11
2019-01-21T12:27:37.223Z,49.95
2019-01-21T12:30:55.261Z,49.83
2019-01-21T12:34:03.533Z,49.91
2019-01-21T12:37:20.910Z,50.44
2019-01-21T12:40:44.611Z,50.93
2019-01-21T12:43:50.281Z,50.66
2019-01-21T12:47:07.978Z,50.79
2019-01-21T12:50:42.293Z,50.99
2019-01-21T12:53:50.595Z,51.42
2019-01-21T12:57:12.571Z,51.38
2019-01-21T13:00:23.707Z,51.25
2019-01-21T13:03:32.498Z,51.65
2019-01-21T13:06:49.592Z,51.87
2019-01-21T13:10:14.383Z,52.74
2019-01-21T13:13:28.976Z,52.13
2019-01-21T13:16:34.527Z,52.00
2019-01-21T13:19:52.106Z,52.07
2019-01-21T13:23:01.189Z,52.23
2019-01-21T13:26:19.033Z,52.77
2019-01-21T13:29:27.775Z,52.73
2019-01-21T13:32:48.141Z,52.86
2019-01-21T13:36:08.630Z,53.04
2019-01-21T13:39:30.916Z,53.68
2019-01-21T13:42:39.308Z,53.90
2019-01-21T13:46:00.235Z,55.02
2019-01-21T13:49:21.104Z,54.97
2019-01-21T13:52:46.587Z,55.25
2019-01-21T13:55:52.338Z,55.21
2019-01-21T13:59:16.009Z,55.53
2019-01-21T14:02:27.857Z,54.85
2019-01-21T14:05:36.434Z,54.97
2019-01-21T14:08:44.775Z,54.92
2019-01-21T14:12:11.685Z,55.07
2019-01-21T14:15:32.471Z,55.27
2019-01-21T14:18:50.125Z,55.45
2019-01-21T14:21:58.631Z,55.66
2019-01-21T14:25:33.230Z,56.14
2019-01-21T14:28:41.657Z,56.40
2019-01-21T14:31:56.138Z,57.06
2019-01-21T14:35:21.019Z,56.99
2019-01-21T14:38:29.608Z,57.13
2019-01-21T14:42:01.334Z,57.22
2019-01-21T14:45:23.487Z,57.45
2019-01-21T14:48:38.218Z,57.51
2019-01-21T14:51:58.896Z,57.59
2019-01-21T14:55:19.197Z,57.43
2019-01-21T14:58:44.494Z,57.45
2019-01-21T15:02:17.383Z,57.71
2019-01-21T15:05:47.422Z,58.07
2019-01-21T15:08:53.085Z,58.38
2019-01-21T15:12:11.086Z,58.20
2019-01-21T15:15:44.333Z,58.19
2019-01-21T15:18:53.106Z,58.25
2019-01-21T15:22:13.943Z,58.19
2019-01-21T15:25:28.867Z,58.08
2019-01-21T15:28:40.795Z,57.95
2019-01-21T15:31:49.550Z,57.82
2019-01-21T15:35:09.727Z,57.85
2019-01-21T15:38:24.683Z,57.92
2019-01-21T15:41:36.105Z,58.09
2019-01-21T15:44:50.637Z,58.16
2019-01-21T15:48:20.789Z,58.35
2019-01-21T15:51:29.113Z,59.31
2019-01-21T15:54:51.479Z,59.78
2019-01-21T15:58:06.191Z,59.99
2019-01-21T16:01:15.197Z,60.22
2019-01-21T16:04:20.863Z,60.83
2019-01-21T16:07:26.482Z,60.94
2019-01-21T16:10:50.841Z,61.45
2019-01-21T16:13:53.632Z,61.79
2019-01-21T16:17:05.253Z,61.85
2019-01-21T16:20:10.883Z,61.92
2019-01-21T16:23:34.832Z,61.86
2019-01-21T16:26:40.430Z,61.74
2019-01-21T16:29:52.000Z,61.82
2019-01-21T16:33:22.031Z,61.85
2019-01-21T16:36:27.636Z,62.13
2019-01-21T16:39:36.177Z,62.31
2019-01-21T16:42:38.307Z,62.51
2019-01-21T16:45:40.353Z,62.90
2019-01-21T16:48:42.496Z,62.85
2019-01-21T16:51:44.367Z,62.84
2019-01-21T16:54:46.314Z,62.48
2019-01-21T16:57:48.260Z,61.70
2019-01-21T17:00:50.342Z,61.24
2019-01-21T17:03:52.430Z,61.00
2019-01-21T17:06:54.488Z,60.76
2019-01-21T17:09:56.385Z,60.78
2019-01-21T17:12:58.356Z,61.36
2019-01-21T17:16:03.527Z,61.42
2019-01-21T17:19:06.001Z,61.25
2019-01-21T17:22:07.933Z,61.16
2019-01-21T17:25:11.262Z,61.22
2019-01-21T17:28:13.253Z,61.31
2019-01-21T17:31:15.205Z,61.55
2019-01-21T17:34:17.201Z,61.27
2019-01-21T17:37:19.221Z,61.31
2019-01-21T17:40:21.241Z,61.07
2019-01-21T17:43:23.187Z,60.99
2019-01-21T17:46:25.103Z,60.86
2019-01-21T17:49:29.057Z,60.72
2019-01-21T17:52:35.941Z,60.76
2019-01-21T17:55:37.975Z,60.73
2019-01-21T17:58:39.895Z,60.78
2019-01-21T18:01:41.896Z,60.66
2019-01-21T18:04:43.902Z,60.76
2019-01-21T18:07:45.869Z,60.99
2019-01-21T18:10:47.820Z,60.97
2019-01-21T18:13:50.225Z,61.00
2019-01-21T18:16:54.042Z,61.00
2019-01-21T18:19:57.262Z,60.81
2019-01-21T18:22:59.375Z,60.78
2019-01-21T18:26:03.917Z,61.00
2019-01-21T18:29:07.825Z,60.96
2019-01-21T18:32:09.765Z,60.96
2019-01-21T18:35:13.521Z,61.22
2019-01-21T18:38:15.467Z,61.26
2019-01-21T18:41:17.840Z,61.04
2019-01-21T18:44:21.696Z,60.93
2019-01-21T18:47:23.668Z,61.42
2019-01-21T18:50:38.391Z,61.95
2019-01-21T18:53:41.581Z,62.11
2019-01-21T18:56:43.578Z,62.71
2019-01-21T18:59:45.470Z,63.15
2019-01-21T19:02:47.469Z,63.67
2019-01-21T19:05:52.566Z,63.88
2019-01-21T19:08:54.985Z,64.12
2019-01-21T19:11:58.052Z,64.44
2019-01-21T19:15:00.015Z,65.00
2019-01-21T19:18:02.078Z,65.04
2019-01-21T19:21:03.983Z,64.97
2019-01-21T19:24:06.134Z,64.83
2019-01-21T19:27:10.218Z,64.65
2019-01-21T19:30:21.458Z,64.40
2019-01-21T19:33:23.475Z,64.24
2019-01-21T19:36:25.690Z,64.48
2019-01-21T19:39:27.615Z,64.64
2019-01-21T19:42:29.949Z,64.45
2019-01-21T19:45:31.916Z,64.36
2019-01-21T19:48:36.951Z,64.60
2019-01-21T19:51:38.909Z,64.96
2019-01-21T19:54:40.887Z,65.06
2019-01-21T19:57:44.958Z,65.60
2019-01-21T20:00:48.581Z,65.30
2019-01-21T20:03:57.319Z,65.89
2019-01-21T20:07:00.271Z,66.19
2019-01-21T20:10:05.783Z,66.29
2019-01-21T20:13:09.182Z,66.40
2019-01-21T20:16:11.139Z,66.14
2019-01-21T20:19:14.058Z,65.58
2019-01-21T20:22:18.203Z,65.50
2019-01-21T20:25:21.690Z,65.69
2019-01-21T20:28:24.053Z,65.66
2019-01-21T20:31:28.124Z,65.39
2019-01-21T20:34:32.168Z,65.58
2019-01-21T20:37:34.647Z,65.84
2019-01-21T20:40:36.799Z,65.84
2019-01-21T20:43:41.643Z,66.07
2019-01-21T20:46:43.613Z,66.07
2019-01-21T20:49:47.478Z,65.63
2019-01-21T20:52:49.838Z,65.13
2019-01-21T20:55:51.813Z,65.45
2019-01-21T20:58:58.440Z,65.45
2019-01-21T21:02:00.364Z,66.29
2019-01-21T21:05:04.063Z,66.65
2019-01-21T21:08:06.900Z,66.79
2019-01-21T21:11:09.133Z,66.58
2019-01-21T21:14:24.962Z,65.88
2019-01-21T21:17:29.288Z,65.93
2019-01-21T21:20:32.340Z,65.93
2019-01-21T21:23:37.662Z,65.60
2019-01-21T21:26:39.656Z,65.30
2019-01-21T21:29:46.762Z,65.03
2019-01-21T21:32:49.809Z,64.76
2019-01-21T21:35:53.398Z,65.22
2019-01-21T21:38:55.729Z,65.29
2019-01-21T21:41:57.847Z,65.55
2019-01-21T21:45:00.166Z,65.07
2019-01-21T21:48:02.091Z,65.30
2019-01-21T21:51:03.995Z,65.05
2019-01-21T21:54:06.568Z,64.43
2019-01-21T21:57:08.508Z,63.85
2019-01-21T22:00:19.000Z,63.86
2019-01-21T22:03:20.902Z,64.03
2019-01-21T22:06:22.841Z,64.28
2019-01-21T22:09:24.757Z,64.45
2019-01-21T22:12:26.880Z,64.42
2019-01-21T22:15:28.915Z,64.26
2019-01-21T22:18:30.890Z,64.30
2019-01-21T22:21:33.257Z,64.38
2019-01-21T22:24:35.194Z,64.39
2019-01-21T22:27:37.075Z,64.27
2019-01-21T22:30:39.110Z,64.87
2019-01-21T22:33:41.017Z,65.29
2019-01-21T22:36:42.992Z,65.58
2019-01-21T22:39:44.905Z,65.58
2019-01-21T22:42:46.856Z,65.54
2019-01-21T22:45:49.998Z,65.73
2019-01-21T22:48:51.975Z,65.67
2019-01-21T22:51:54.266Z,65.67
2019-01-21T22:54:56.154Z,65.71
2019-01-21T22:57:58.186Z,66.13
2019-01-21T23:01:04.131Z,66.41
2019-01-21T23:04:06.226Z,65.48
2019-01-21T23:07:08.105Z,65.48
2019-01-21T23:10:10.262Z,64.84
2019-01-21T23:13:13.425Z,64.65
2019-01-21T23:16:15.692Z,64.92
2019-01-21T23:19:17.653Z,65.23
2019-01-21T23:22:19.712Z,65.19
2019-01-21T23:25:21.646Z,64.93
2019-01-21T23:28:23.585Z,64.77
2019-01-21T23:31:25.466Z,64.34
2019-01-21T23:34:27.420Z,63.76
2019-01-21T23:37:29.300Z,63.99
2019-01-21T23:40:31.472Z,64.36
2019-01-21T23:43:33.400Z,64.57
2019-01-21T23:46:35.897Z,64.37
2019-01-21T23:49:37.809Z,64.24
2019-01-21T23:52:39.783Z,63.82
2019-01-21T23:55:41.699Z,63.38
2019-01-21T23:58:43.651Z,63.02
